Wetterdaten: Woche 19.06.17 - 25.06.17 (KW25)
Datum Zeit Temp. A. Pool Temp. Feuchte A. Luftdruck Regen Wind Richtung Sonnenschein ET UV Solar Taupunkt Windchill Windben Empfang
19.06.2017 00:00 13,8 C 22,8 C 76 % 1022,6 hPa 0,0 l/m 1,3 km/h (1 Bft) SO 0,00 h 0,000 mm 0,0 UV-I 0 W/m 9,7 C 13,8 C 2,7 km/h (1 Bft) 95,88 %
19.06.2017 01:00 12,6 C 22,8 C 80 % 1022,4 hPa 0,0 l/m 0,6 km/h (0 Bft) SO 0,00 h 0,000 mm 0,0 UV-I 0 W/m 9,2 C 12,6 C 1,7 km/h (1 Bft) 97,50 %
19.06.2017 02:00 11,7 C 22,8 C 84 % 1022,2 hPa 0,0 l/m 0,3 km/h (0 Bft) SO 0,00 h 0,000 mm 0,0 UV-I 0 W/m 9,0 C 11,7 C 0,7 km/h (0 Bft) 94,87 %
19.06.2017 03:00 11,4 C 22,7 C 85 % 1022,0 hPa 0,0 l/m 1,9 km/h (1 Bft) O-NO 0,00 h 0,000 mm 0,0 UV-I 0 W/m 8,9 C 11,4 C 2,9 km/h (1 Bft) 97,75 %
19.06.2017 04:00 10,8 C 22,2 C 86 % 1022,0 hPa 0,0 l/m 1,7 km/h (1 Bft) O-NO 0,00 h 0,000 mm 0,0 UV-I 5 W/m 8,6 C 10,8 C 2,8 km/h (1 Bft) 96,44 %
19.06.2017 05:00 11,2 C 22,2 C 85 % 1021,8 hPa 0,0 l/m 3,1 km/h (1 Bft) O-NO 0,73 h 0,000 mm 0,0 UV-I 36 W/m 8,8 C 11,2 C 4,4 km/h (1 Bft) 96,49 %
19.06.2017 06:00 12,1 C 22,2 C 86 % 1021,9 hPa 0,0 l/m 2,9 km/h (1 Bft) O-NO 0,80 h 0,025 mm 0,0 UV-I 136 W/m 9,8 C 12,1 C 4,5 km/h (1 Bft) 97,59 %
19.06.2017 07:00 14,9 C 22,2 C 78 % 1021,7 hPa 0,0 l/m 5,4 km/h (1 Bft) O-NO 1,00 h 0,077 mm 0,8 UV-I 314 W/m 11,0 C 14,8 C 7,9 km/h (2 Bft) 96,58 %
19.06.2017 08:00 17,5 C 22,2 C 70 % 1021,6 hPa 0,0 l/m 8,6 km/h (2 Bft) NO 1,00 h 0,177 mm 1,7 UV-I 485 W/m 11,9 C 16,4 C 13,8 km/h (3 Bft) 95,95 %
19.06.2017 09:00 20,2 C 22,3 C 62 % 1021,5 hPa 0,0 l/m 12,1 km/h (2 Bft) O-NO 1,00 h 0,305 mm 3,0 UV-I 642 W/m 12,7 C 18,3 C 18,0 km/h (3 Bft) 97,25 %
19.06.2017 10:00 22,1 C 22,8 C 54 % 1021,3 hPa 0,0 l/m 18,3 km/h (3 Bft) O-NO 1,00 h 0,432 mm 4,6 UV-I 775 W/m 12,3 C 19,3 C 26,7 km/h (4 Bft) 97,29 %
19.06.2017 11:00 23,6 C 22,8 C 48 % 1021,1 hPa 0,0 l/m 16,2 km/h (3 Bft) O-NO 1,00 h 0,584 mm 5,9 UV-I 869 W/m 11,9 C 21,5 C 23,2 km/h (4 Bft) 94,90 %
19.06.2017 12:00 24,8 C 22,9 C 44 % 1020,7 hPa 0,0 l/m 13,2 km/h (3 Bft) O-NO 1,00 h 0,661 mm 6,8 UV-I 919 W/m 11,7 C 23,4 C 20,3 km/h (4 Bft) 96,54 %
19.06.2017 13:00 26,0 C 23,3 C 42 % 1020,1 hPa 0,0 l/m 12,1 km/h (2 Bft) O-NO 1,00 h 0,685 mm 6,9 UV-I 922 W/m 12,0 C 24,9 C 18,8 km/h (3 Bft) 98,48 %
19.06.2017 14:00 26,9 C 23,3 C 38 % 1019,4 hPa 0,0 l/m 10,5 km/h (2 Bft) O-NO 1,00 h 0,686 mm 6,2 UV-I 877 W/m 11,2 C 26,2 C 16,7 km/h (3 Bft) 97,11 %
19.06.2017 15:00 27,9 C 23,3 C 34 % 1018,9 hPa 0,0 l/m 7,4 km/h (2 Bft) NO 1,00 h 0,661 mm 4,9 UV-I 786 W/m 10,7 C 27,6 C 13,2 km/h (3 Bft) 96,02 %
19.06.2017 16:00 28,5 C 23,3 C 33 % 1018,3 hPa 0,0 l/m 6,9 km/h (2 Bft) O-NO 1,00 h 0,584 mm 3,3 UV-I 652 W/m 10,6 C 28,3 C 12,3 km/h (3 Bft) 96,98 %
19.06.2017 17:00 28,7 C 23,3 C 33 % 1017,7 hPa 0,0 l/m 8,1 km/h (2 Bft) O-NO 1,00 h 0,508 mm 2,0 UV-I 495 W/m 10,6 C 28,4 C 13,4 km/h (3 Bft) 98,22 %
19.06.2017 18:00 28,5 C 23,3 C 33 % 1017,3 hPa 0,0 l/m 8,4 km/h (2 Bft) O-NO 1,00 h 0,432 mm 0,9 UV-I 322 W/m 10,5 C 28,2 C 13,0 km/h (3 Bft) 94,92 %
19.06.2017 19:00 27,7 C 23,7 C 36 % 1016,9 hPa 0,0 l/m 7,5 km/h (2 Bft) O-NO 1,00 h 0,304 mm 0,5 UV-I 159 W/m 11,1 C 27,5 C 11,7 km/h (2 Bft) 97,24 %
19.06.2017 20:00 25,0 C 24,5 C 45 % 1016,6 hPa 0,0 l/m 4,7 km/h (1 Bft) O-NO 0,93 h 0,204 mm 0,0 UV-I 46 W/m 12,0 C 25,0 C 7,4 km/h (2 Bft) 97,14 %
19.06.2017 21:00 22,9 C 24,4 C 53 % 1016,7 hPa 0,0 l/m 6,0 km/h (2 Bft) O-NO 0,00 h 0,076 mm 0,0 UV-I 7 W/m 12,6 C 22,8 C 9,1 km/h (2 Bft) 97,63 %
19.06.2017 22:00 21,4 C 24,4 C 61 % 1016,7 hPa 0,0 l/m 5,8 km/h (2 Bft) O-NO 0,00 h 0,051 mm 0,0 UV-I 0 W/m 13,5 C 21,3 C 8,6 km/h (2 Bft) 95,52 %
19.06.2017 23:00 19,9 C 24,4 C 66 % 1016,8 hPa 0,0 l/m 1,6 km/h (1 Bft) O-NO 0,00 h 0,050 mm 0,0 UV-I 0 W/m 13,4 C 19,9 C 2,7 km/h (1 Bft) 97,17 %
20.06.2017 00:00 18,3 C 24,4 C 72 % 1016,7 hPa 0,0 l/m 0,7 km/h (0 Bft) O-NO 0,00 h 0,000 mm 0,0 UV-I 0 W/m 13,1 C 18,3 C 1,4 km/h (1 Bft) 97,83 %
20.06.2017 01:00 16,4 C 24,1 C 79 % 1016,5 hPa 0,0 l/m 1,2 km/h (1 Bft) S 0,00 h 0,000 mm 0,0 UV-I 0 W/m 12,7 C 16,4 C 2,7 km/h (1 Bft) 97,50 %
20.06.2017 02:00 15,5 C 23,9 C 83 % 1016,3 hPa 0,0 l/m 1,3 km/h (1 Bft) S 0,00 h 0,000 mm 0,0 UV-I 0 W/m 12,6 C 15,5 C 3,0 km/h (1 Bft) 95,24 %
20.06.2017 03:00 15,0 C 23,9 C 86 % 1016,0 hPa 0,0 l/m 0,8 km/h (0 Bft) S 0,00 h 0,000 mm 0,0 UV-I 0 W/m 12,6 C 15,0 C 2,6 km/h (1 Bft) 98,10 %
20.06.2017 04:00 14,6 C 23,9 C 87 % 1015,8 hPa 0,0 l/m 0,8 km/h (0 Bft) S 0,00 h 0,000 mm 0,0 UV-I 6 W/m 12,5 C 14,6 C 1,8 km/h (1 Bft) 96,79 %
20.06.2017 05:00 14,1 C 23,6 C 89 % 1015,8 hPa 0,0 l/m 0,0 km/h (0 Bft) N 0,73 h 0,000 mm 0,0 UV-I 37 W/m 12,3 C 14,1 C 0,2 km/h (0 Bft) 96,74 %
20.06.2017 06:00 16,0 C 23,3 C 86 % 1016,0 hPa 0,0 l/m 0,8 km/h (0 Bft) S 0,80 h 0,025 mm 0,0 UV-I 133 W/m 13,5 C 16,0 C 1,9 km/h (1 Bft) 96,71 %
20.06.2017 07:00 18,7 C 23,3 C 77 % 1016,0 hPa 0,0 l/m 2,3 km/h (1 Bft) W-SW 1,00 h 0,077 mm 0,7 UV-I 297 W/m 14,6 C 18,7 C 4,5 km/h (1 Bft) 98,67 %
20.06.2017 08:00 21,0 C 23,3 C 70 % 1015,9 hPa 0,0 l/m 2,6 km/h (1 Bft) W-SW 1,00 h 0,177 mm 1,5 UV-I 455 W/m 15,3 C 21,0 C 5,3 km/h (1 Bft) 95,15 %
20.06.2017 09:00 23,4 C 23,3 C 64 % 1015,8 hPa 0,0 l/m 1,3 km/h (1 Bft) S-SW 1,00 h 0,280 mm 2,8 UV-I 613 W/m 16,1 C 23,4 C 3,6 km/h (1 Bft) 96,90 %
20.06.2017 10:00 25,7 C 23,9 C 55 % 1015,5 hPa 0,0 l/m 2,1 km/h (1 Bft) NW 1,00 h 0,381 mm 4,0 UV-I 721 W/m 16,1 C 25,7 C 4,9 km/h (1 Bft) 97,39 %
20.06.2017 11:00 27,6 C 23,9 C 50 % 1015,2 hPa 0,0 l/m 3,7 km/h (1 Bft) W-SW 1,00 h 0,482 mm 5,0 UV-I 804 W/m 16,3 C 27,6 C 7,6 km/h (2 Bft) 97,52 %
20.06.2017 12:00 29,3 C 24,3 C 48 % 1014,6 hPa 0,0 l/m 4,6 km/h (1 Bft) W-SW 1,00 h 0,559 mm 5,8 UV-I 866 W/m 17,2 C 29,3 C 9,0 km/h (2 Bft) 97,55 %
20.06.2017 13:00 30,7 C 24,8 C 43 % 1014,0 hPa 0,0 l/m 7,1 km/h (2 Bft) W 1,00 h 0,610 mm 5,9 UV-I 896 W/m 16,4 C 30,6 C 14,8 km/h (3 Bft) 95,43 %
20.06.2017 14:00 31,9 C 25,0 C 35 % 1013,4 hPa 0,0 l/m 9,5 km/h (2 Bft) SW 1,00 h 0,660 mm 5,4 UV-I 836 W/m 14,6 C 31,8 C 19,5 km/h (3 Bft) 97,60 %
20.06.2017 15:00 31,9 C 25,3 C 38 % 1013,0 hPa 0,0 l/m 7,5 km/h (2 Bft) W-SW 1,00 h 0,686 mm 4,1 UV-I 740 W/m 15,7 C 31,9 C 14,9 km/h (3 Bft) 96,17 %
20.06.2017 16:00 31,9 C 25,6 C 37 % 1012,5 hPa 0,0 l/m 8,3 km/h (2 Bft) W-SW 1,00 h 0,584 mm 2,8 UV-I 610 W/m 15,3 C 31,9 C 17,0 km/h (3 Bft) 96,70 %
20.06.2017 17:00 31,7 C 25,6 C 36 % 1012,2 hPa 0,0 l/m 7,6 km/h (2 Bft) W 1,00 h 0,508 mm 1,6 UV-I 450 W/m 14,9 C 31,7 C 15,2 km/h (3 Bft) 97,07 %
20.06.2017 18:00 31,0 C 26,0 C 38 % 1011,8 hPa 0,0 l/m 2,6 km/h (1 Bft) NW 1,00 h 0,407 mm 0,8 UV-I 287 W/m 15,0 C 31,0 C 6,5 km/h (2 Bft) 97,15 %
20.06.2017 19:00 29,9 C 26,1 C 40 % 1011,7 hPa 0,0 l/m 1,0 km/h (0 Bft) NW 0,95 h 0,228 mm 0,0 UV-I 145 W/m 14,9 C 29,9 C 3,4 km/h (1 Bft) 96,19 %
20.06.2017 20:00 28,0 C 25,7 C 45 % 1011,9 hPa 0,0 l/m 1,5 km/h (1 Bft) W 0,33 h 0,127 mm 0,0 UV-I 38 W/m 15,1 C 28,0 C 3,2 km/h (1 Bft) 98,11 %
20.06.2017 21:00 26,2 C 25,6 C 50 % 1012,2 hPa 0,0 l/m 5,2 km/h (1 Bft) SW 0,00 h 0,051 mm 0,0 UV-I 6 W/m 15,0 C 26,2 C 7,5 km/h (2 Bft) 96,76 %
20.06.2017 22:00 24,4 C 25,6 C 57 % 1012,3 hPa 0,0 l/m 5,5 km/h (1 Bft) SW 0,00 h 0,051 mm 0,0 UV-I 0 W/m 15,3 C 24,2 C 8,8 km/h (2 Bft) 95,59 %
20.06.2017 23:00 23,6 C 25,6 C 62 % 1012,5 hPa 0,0 l/m 5,7 km/h (1 Bft) S-SW 0,00 h 0,051 mm 0,0 UV-I 0 W/m 16,0 C 23,5 C 9,0 km/h (2 Bft) 96,25 %
21.06.2017 00:00 23,0 C 25,5 C 66 % 1012,4 hPa 0,0 l/m 5,7 km/h (1 Bft) S-SW 0,00 h 0,000 mm 0,0 UV-I 0 W/m 16,4 C 22,9 C 8,3 km/h (2 Bft) 97,76 %
21.06.2017 01:00 22,1 C 25,0 C 71 % 1012,5 hPa 0,0 l/m 4,0 km/h (1 Bft) SW 0,00 h 0,025 mm 0,0 UV-I 0 W/m 16,6 C 22,1 C 6,6 km/h (2 Bft) 97,03 %
21.06.2017 02:00 21,2 C 25,0 C 75 % 1012,3 hPa 0,0 l/m 1,8 km/h (1 Bft) S-SW 0,00 h 0,026 mm 0,0 UV-I 0 W/m 16,5 C 21,2 C 4,1 km/h (1 Bft) 95,21 %
21.06.2017 03:00 20,1 C 25,0 C 78 % 1012,3 hPa 0,0 l/m 2,5 km/h (1 Bft) SW 0,00 h 0,025 mm 0,0 UV-I 0 W/m 16,1 C 20,1 C 4,5 km/h (1 Bft) 97,14 %
21.06.2017 04:00 19,8 C 25,0 C 78 % 1012,7 hPa 0,0 l/m 3,7 km/h (1 Bft) SW 0,00 h 0,026 mm 0,0 UV-I 4 W/m 15,9 C 19,8 C 6,1 km/h (2 Bft) 97,41 %
21.06.2017 05:00 19,5 C 25,0 C 81 % 1013,2 hPa 0,0 l/m 4,8 km/h (1 Bft) SW 0,07 h 0,025 mm 0,0 UV-I 24 W/m 16,1 C 19,3 C 7,5 km/h (2 Bft) 96,90 %
21.06.2017 06:00 20,7 C 25,0 C 78 % 1013,6 hPa 0,0 l/m 1,2 km/h (1 Bft) SW 0,87 h 0,025 mm 0,0 UV-I 138 W/m 16,7 C 20,7 C 2,7 km/h (1 Bft) 95,91 %
21.06.2017 07:00 22,4 C 25,0 C 72 % 1013,8 hPa 0,0 l/m 4,5 km/h (1 Bft) W-SW 1,00 h 0,077 mm 0,7 UV-I 283 W/m 17,0 C 22,3 C 8,3 km/h (2 Bft) 97,72 %
21.06.2017 08:00 23,9 C 25,0 C 67 % 1014,0 hPa 0,0 l/m 2,7 km/h (1 Bft) W 1,00 h 0,203 mm 1,5 UV-I 441 W/m 17,4 C 23,9 C 5,9 km/h (2 Bft) 97,57 %
21.06.2017 09:00 25,2 C 25,0 C 62 % 1014,1 hPa 0,0 l/m 3,2 km/h (1 Bft) W-SW 1,00 h 0,279 mm 2,6 UV-I 592 W/m 17,4 C 25,2 C 6,4 km/h (2 Bft) 98,08 %
21.06.2017 10:00 26,1 C 25,0 C 57 % 1013,8 hPa 0,0 l/m 3,9 km/h (1 Bft) W-NW 1,00 h 0,381 mm 3,9 UV-I 706 W/m 17,0 C 26,1 C 7,6 km/h (2 Bft) 94,68 %
21.06.2017 11:00 27,7 C 25,5 C 52 % 1013,7 hPa 0,0 l/m 5,2 km/h (1 Bft) S-SO 0,97 h 0,483 mm 4,8 UV-I 766 W/m 17,0 C 27,6 C 10,6 km/h (2 Bft) 96,43 %
21.06.2017 12:00 28,8 C 25,7 C 49 % 1013,5 hPa 0,0 l/m 7,0 km/h (2 Bft) SW 1,00 h 0,533 mm 5,6 UV-I 819 W/m 16,8 C 28,6 C 12,5 km/h (3 Bft) 96,58 %
21.06.2017 13:00 30,0 C 26,1 C 42 % 1012,9 hPa 0,0 l/m 6,8 km/h (2 Bft) W-NW 1,00 h 0,610 mm 5,8 UV-I 877 W/m 15,6 C 29,9 C 13,3 km/h (3 Bft) 98,11 %
21.06.2017 14:00 30,8 C 26,3 C 35 % 1012,3 hPa 0,0 l/m 8,5 km/h (2 Bft) W-SW 1,00 h 0,635 mm 5,0 UV-I 805 W/m 13,4 C 30,7 C 15,1 km/h (3 Bft) 94,96 %
21.06.2017 15:00 31,5 C 26,7 C 34 % 1012,3 hPa 0,0 l/m 7,8 km/h (2 Bft) W-SW 1,00 h 0,609 mm 4,3 UV-I 769 W/m 13,6 C 31,4 C 15,0 km/h (3 Bft) 98,02 %
21.06.2017 16:00 31,3 C 26,7 C 35 % 1011,9 hPa 0,0 l/m 7,8 km/h (2 Bft) W-SW 0,90 h 0,610 mm 2,8 UV-I 572 W/m 13,7 C 31,2 C 13,8 km/h (3 Bft) 96,59 %
21.06.2017 17:00 30,8 C 27,2 C 40 % 1011,5 hPa 0,0 l/m 7,5 km/h (2 Bft) N-NO 1,00 h 0,457 mm 1,9 UV-I 536 W/m 15,5 C 30,6 C 13,4 km/h (3 Bft) 95,52 %
21.06.2017 18:00 29,5 C 27,2 C 44 % 1011,3 hPa 0,0 l/m 13,5 km/h (3 Bft) O-NO 1,00 h 0,457 mm 0,9 UV-I 361 W/m 15,8 C 28,9 C 19,7 km/h (3 Bft) 97,15 %
21.06.2017 19:00 28,2 C 27,2 C 48 % 1011,8 hPa 0,0 l/m 8,5 km/h (2 Bft) O-NO 0,90 h 0,381 mm 0,5 UV-I 178 W/m 16,1 C 27,9 C 13,1 km/h (3 Bft) 97,53 %
21.06.2017 20:00 26,3 C 26,9 C 54 % 1011,9 hPa 0,0 l/m 2,9 km/h (1 Bft) NO 0,20 h 0,204 mm 0,0 UV-I 36 W/m 16,2 C 26,3 C 4,7 km/h (1 Bft) 95,48 %
21.06.2017 21:00 24,3 C 26,7 C 61 % 1012,4 hPa 0,0 l/m 1,3 km/h (1 Bft) NO 0,00 h 0,050 mm 0,0 UV-I 5 W/m 16,3 C 24,3 C 2,2 km/h (1 Bft) 96,25 %
21.06.2017 22:00 22,7 C 26,7 C 69 % 1013,0 hPa 0,0 l/m 1,1 km/h (1 Bft) NO 0,00 h 0,026 mm 0,0 UV-I 0 W/m 16,7 C 22,7 C 2,0 km/h (1 Bft) 97,42 %
21.06.2017 23:00 21,3 C 26,7 C 75 % 1012,9 hPa 0,0 l/m 1,1 km/h (1 Bft) SW 0,00 h 0,025 mm 0,0 UV-I 0 W/m 16,7 C 21,3 C 2,3 km/h (1 Bft) 97,46 %
22.06.2017 00:00 20,7 C 26,6 C 77 % 1012,8 hPa 0,0 l/m 1,5 km/h (1 Bft) SW 0,00 h 0,000 mm 0,0 UV-I 0 W/m 16,6 C 20,7 C 2,9 km/h (1 Bft) 95,49 %
22.06.2017 01:00 19,5 C 26,1 C 82 % 1012,8 hPa 0,0 l/m 1,5 km/h (1 Bft) NO 0,00 h 0,000 mm 0,0 UV-I 0 W/m 16,3 C 19,5 C 2,7 km/h (1 Bft) 96,95 %
22.06.2017 02:00 18,5 C 26,1 C 84 % 1013,1 hPa 0,0 l/m 1,4 km/h (1 Bft) O 0,00 h 0,000 mm 0,0 UV-I 0 W/m 15,8 C 18,5 C 3,0 km/h (1 Bft) 97,60 %
22.06.2017 03:00 18,4 C 26,1 C 81 % 1013,3 hPa 0,0 l/m 1,0 km/h (0 Bft) O 0,00 h 0,000 mm 0,0 UV-I 0 W/m 15,0 C 18,4 C 2,8 km/h (1 Bft) 96,38 %
22.06.2017 04:00 18,1 C 26,1 C 79 % 1013,0 hPa 0,0 l/m 0,8 km/h (0 Bft) O-SO 0,00 h 0,000 mm 0,0 UV-I 5 W/m 14,3 C 18,1 C 2,3 km/h (1 Bft) 95,28 %
22.06.2017 05:00 17,1 C 25,8 C 82 % 1013,1 hPa 0,0 l/m 0,0 km/h (0 Bft) N 0,07 h 0,000 mm 0,0 UV-I 22 W/m 14,0 C 17,1 C 0,1 km/h (0 Bft) 97,37 %
22.06.2017 06:00 18,0 C 25,6 C 80 % 1013,6 hPa 0,0 l/m 0,5 km/h (0 Bft) O-SO 0,40 h 0,025 mm 0,0 UV-I 108 W/m 14,5 C 18,0 C 1,9 km/h (1 Bft) 97,06 %
22.06.2017 07:00 20,8 C 25,6 C 72 % 1014,0 hPa 0,0 l/m 2,5 km/h (1 Bft) O-SO 0,97 h 0,077 mm 0,7 UV-I 279 W/m 15,5 C 20,8 C 4,7 km/h (1 Bft) 95,62 %
22.06.2017 08:00 22,6 C 25,7 C 68 % 1014,1 hPa 0,0 l/m 4,5 km/h (1 Bft) SW 0,73 h 0,177 mm 1,4 UV-I 395 W/m 16,5 C 22,7 C 7,4 km/h (2 Bft) 97,15 %
22.06.2017 09:00 25,0 C 26,0 C 61 % 1014,1 hPa 0,0 l/m 3,5 km/h (1 Bft) SW 0,97 h 0,254 mm 2,7 UV-I 573 W/m 16,9 C 25,0 C 7,2 km/h (2 Bft) 96,86 %
22.06.2017 10:00 26,8 C 26,1 C 55 % 1014,0 hPa 0,0 l/m 5,0 km/h (1 Bft) W-SW 1,00 h 0,381 mm 4,2 UV-I 721 W/m 16,8 C 26,7 C 9,8 km/h (2 Bft) 98,07 %
22.06.2017 11:00 28,8 C 26,1 C 49 % 1013,8 hPa 0,0 l/m 4,6 km/h (1 Bft) W 1,00 h 0,508 mm 5,4 UV-I 822 W/m 17,1 C 28,8 C 9,0 km/h (2 Bft) 96,25 %
22.06.2017 12:00 30,5 C 26,7 C 44 % 1013,3 hPa 0,0 l/m 5,6 km/h (1 Bft) SW 1,00 h 0,585 mm 6,3 UV-I 875 W/m 16,9 C 30,4 C 11,3 km/h (2 Bft) 94,30 %
22.06.2017 13:00 31,2 C 27,1 C 41 % 1012,8 hPa 0,0 l/m 5,0 km/h (1 Bft) W 1,00 h 0,635 mm 6,3 UV-I 899 W/m 16,4 C 31,2 C 11,0 km/h (2 Bft) 96,80 %
22.06.2017 14:00 32,1 C 27,2 C 38 % 1012,3 hPa 0,0 l/m 6,7 km/h (2 Bft) SW 0,87 h 0,635 mm 5,2 UV-I 779 W/m 16,0 C 32,0 C 12,9 km/h (3 Bft) 97,17 %
22.06.2017 15:00 32,5 C 27,6 C 36 % 1011,7 hPa 0,0 l/m 7,4 km/h (2 Bft) W-SW 0,97 h 0,584 mm 4,3 UV-I 724 W/m 15,7 C 32,5 C 13,9 km/h (3 Bft) 94,00 %
22.06.2017 16:00 32,9 C 27,8 C 35 % 1011,0 hPa 0,0 l/m 5,9 km/h (2 Bft) W-SW 1,00 h 0,584 mm 3,0 UV-I 592 W/m 15,3 C 32,9 C 11,9 km/h (2 Bft) 97,79 %
22.06.2017 17:00 32,8 C 27,8 C 35 % 1010,7 hPa 0,0 l/m 3,8 km/h (1 Bft) W 1,00 h 0,483 mm 1,8 UV-I 461 W/m 15,2 C 32,8 C 8,6 km/h (2 Bft) 96,40 %
22.06.2017 18:00 31,8 C 27,8 C 37 % 1010,4 hPa 0,0 l/m 2,9 km/h (1 Bft) W 0,77 h 0,381 mm 0,8 UV-I 260 W/m 15,4 C 31,8 C 7,1 km/h (2 Bft) 95,41 %
22.06.2017 19:00 30,4 C 27,8 C 40 % 1010,0 hPa 0,0 l/m 1,4 km/h (1 Bft) W 0,50 h 0,228 mm 0,0 UV-I 127 W/m 15,1 C 30,4 C 4,2 km/h (1 Bft) 97,81 %
22.06.2017 20:00 28,0 C 27,8 C 50 % 1009,8 hPa 0,0 l/m 0,2 km/h (0 Bft) W 0,10 h 0,102 mm 0,0 UV-I 34 W/m 16,5 C 28,0 C 1,0 km/h (0 Bft) 96,96 %
22.06.2017 21:00 25,5 C 27,8 C 56 % 1010,2 hPa 0,0 l/m 0,5 km/h (0 Bft) SW 0,00 h 0,025 mm 0,0 UV-I 5 W/m 16,2 C 25,5 C 1,9 km/h (1 Bft) 95,33 %
22.06.2017 22:00 24,6 C 27,8 C 61 % 1010,2 hPa 0,0 l/m 3,1 km/h (1 Bft) S 0,00 h 0,026 mm 0,0 UV-I 0 W/m 16,6 C 24,6 C 5,8 km/h (2 Bft) 96,74 %
22.06.2017 23:00 23,8 C 27,4 C 65 % 1009,8 hPa 0,0 l/m 5,1 km/h (1 Bft) S-SW 0,00 h 0,025 mm 0,0 UV-I 0 W/m 16,7 C 23,7 C 8,5 km/h (2 Bft) 97,76 %
23.06.2017 00:00 22,6 C 27,2 C 67 % 1009,7 hPa 0,0 l/m 5,7 km/h (1 Bft) S-SW 0,00 h 0,000 mm 0,0 UV-I 0 W/m 16,1 C 22,4 C 8,9 km/h (2 Bft) 96,03 %
23.06.2017 01:00 22,2 C 27,2 C 67 % 1008,8 hPa 0,0 l/m 6,9 km/h (2 Bft) S-SW 0,00 h 0,025 mm 0,0 UV-I 0 W/m 15,7 C 21,9 C 11,0 km/h (2 Bft) 96,18 %
23.06.2017 02:00 22,5 C 27,1 C 65 % 1008,5 hPa 0,4 l/m 10,9 km/h (2 Bft) S-SW 0,00 h 0,051 mm 0,0 UV-I 0 W/m 15,6 C 21,4 C 17,8 km/h (3 Bft) 96,78 %
23.06.2017 03:00 22,4 C 26,7 C 71 % 1009,3 hPa 0,6 l/m 4,3 km/h (1 Bft) W-NW 0,00 h 0,076 mm 0,0 UV-I 0 W/m 16,9 C 22,1 C 8,7 km/h (2 Bft) 98,04 %
23.06.2017 04:00 20,4 C 26,7 C 79 % 1009,8 hPa 0,0 l/m 2,9 km/h (1 Bft) S-SO 0,00 h 0,026 mm 0,0 UV-I 0 W/m 16,6 C 20,4 C 6,5 km/h (2 Bft) 96,68 %
23.06.2017 05:00 19,4 C 26,7 C 81 % 1009,9 hPa 0,0 l/m 2,5 km/h (1 Bft) SO 0,00 h 0,025 mm 0,0 UV-I 14 W/m 16,1 C 19,4 C 5,1 km/h (1 Bft) 95,82 %
23.06.2017 06:00 19,6 C 26,7 C 85 % 1010,0 hPa 0,0 l/m 0,5 km/h (0 Bft) W 0,00 h 0,026 mm 0,0 UV-I 65 W/m 17,0 C 19,6 C 1,6 km/h (1 Bft) 95,83 %
23.06.2017 07:00 20,6 C 26,7 C 84 % 1010,3 hPa 0,0 l/m 2,2 km/h (1 Bft) SW 0,07 h 0,050 mm 0,6 UV-I 124 W/m 17,8 C 20,6 C 4,1 km/h (1 Bft) 97,10 %
23.06.2017 08:00 23,3 C 26,7 C 77 % 1010,6 hPa 0,0 l/m 3,3 km/h (1 Bft) W 0,27 h 0,077 mm 0,8 UV-I 217 W/m 18,9 C 23,3 C 5,9 km/h (2 Bft) 95,46 %
23.06.2017 09:00 25,4 C 26,7 C 64 % 1011,1 hPa 0,4 l/m 14,7 km/h (3 Bft) W-SW 0,33 h 0,152 mm 1,6 UV-I 361 W/m 17,9 C 24,1 C 25,3 km/h (4 Bft) 95,70 %
23.06.2017 10:00 26,2 C 26,7 C 62 % 1011,3 hPa 0,0 l/m 17,3 km/h (3 Bft) W-SW 0,40 h 0,305 mm 2,7 UV-I 443 W/m 18,2 C 24,5 C 28,0 km/h (4 Bft) 96,13 %
23.06.2017 11:00 28,1 C 26,7 C 57 % 1011,3 hPa 0,2 l/m 16,9 km/h (3 Bft) W-SW 1,00 h 0,406 mm 4,9 UV-I 807 W/m 18,6 C 27,0 C 29,0 km/h (5 Bft) 96,84 %
23.06.2017 12:00 29,4 C 26,9 C 49 % 1011,2 hPa 0,0 l/m 21,3 km/h (4 Bft) W-SW 0,97 h 0,635 mm 5,4 UV-I 803 W/m 17,5 C 28,3 C 36,8 km/h (5 Bft) 95,04 %
23.06.2017 13:00 29,7 C 27,2 C 46 % 1010,9 hPa 0,0 l/m 21,9 km/h (4 Bft) W-SW 0,90 h 0,711 mm 5,1 UV-I 746 W/m 17,0 C 28,7 C 36,8 km/h (5 Bft) 96,67 %
23.06.2017 14:00 30,0 C 27,2 C 47 % 1010,7 hPa 0,0 l/m 17,1 km/h (3 Bft) W-SW 0,50 h 0,686 mm 3,6 UV-I 566 W/m 17,2 C 29,3 C 31,2 km/h (5 Bft) 94,84 %
23.06.2017 15:00 30,1 C 27,2 C 48 % 1010,5 hPa 0,0 l/m 9,6 km/h (2 Bft) SW 0,73 h 0,508 mm 3,8 UV-I 663 W/m 17,8 C 29,9 C 19,4 km/h (3 Bft) 95,99 %
23.06.2017 16:00 31,2 C 27,8 C 42 % 1010,3 hPa 0,0 l/m 12,1 km/h (2 Bft) W 0,97 h 0,508 mm 3,0 UV-I 650 W/m 16,8 C 30,9 C 23,2 km/h (4 Bft) 94,61 %
23.06.2017 17:00 30,9 C 27,8 C 40 % 1010,2 hPa 0,0 l/m 12,7 km/h (3 Bft) W-SW 0,70 h 0,534 mm 1,6 UV-I 410 W/m 15,7 C 30,6 C 25,5 km/h (4 Bft) 98,09 %
23.06.2017 18:00 29,5 C 27,8 C 44 % 1010,3 hPa 0,0 l/m 7,3 km/h (2 Bft) NW 0,53 h 0,406 mm 0,7 UV-I 214 W/m 15,8 C 29,3 C 17,0 km/h (3 Bft) 97,05 %
23.06.2017 19:00 28,9 C 27,8 C 42 % 1011,1 hPa 0,0 l/m 6,4 km/h (2 Bft) NW 0,70 h 0,229 mm 0,5 UV-I 141 W/m 14,6 C 28,9 C 14,3 km/h (3 Bft) 95,34 %
23.06.2017 20:00 27,4 C 27,8 C 43 % 1011,6 hPa 0,0 l/m 7,2 km/h (2 Bft) W-SW 0,03 h 0,177 mm 0,0 UV-I 34 W/m 13,5 C 27,2 C 14,0 km/h (3 Bft) 96,31 %
23.06.2017 21:00 25,7 C 27,8 C 46 % 1012,4 hPa 0,0 l/m 4,5 km/h (1 Bft) W-SW 0,00 h 0,102 mm 0,0 UV-I 6 W/m 13,0 C 25,6 C 10,7 km/h (2 Bft) 96,86 %
23.06.2017 22:00 24,1 C 27,8 C 48 % 1013,1 hPa 0,0 l/m 4,6 km/h (1 Bft) W-SW 0,00 h 0,051 mm 0,0 UV-I 0 W/m 12,3 C 24,1 C 7,3 km/h (2 Bft) 97,69 %
23.06.2017 23:00 21,9 C 27,8 C 57 % 1013,7 hPa 0,0 l/m 4,5 km/h (1 Bft) S-SW 0,00 h 0,051 mm 0,0 UV-I 0 W/m 13,1 C 21,9 C 7,3 km/h (2 Bft) 95,54 %
24.06.2017 00:00 21,5 C 27,8 C 55 % 1014,1 hPa 0,0 l/m 5,9 km/h (2 Bft) W-SW 0,00 h 0,000 mm 0,0 UV-I 0 W/m 12,0 C 21,4 C 9,2 km/h (2 Bft) 96,75 %
24.06.2017 01:00 21,1 C 27,8 C 58 % 1014,4 hPa 0,0 l/m 6,2 km/h (2 Bft) SW 0,00 h 0,051 mm 0,0 UV-I 0 W/m 12,4 C 20,9 C 9,1 km/h (2 Bft) 96,98 %
24.06.2017 02:00 20,5 C 27,8 C 64 % 1014,6 hPa 0,0 l/m 5,7 km/h (1 Bft) W-SW 0,00 h 0,051 mm 0,0 UV-I 0 W/m 13,4 C 20,4 C 8,8 km/h (2 Bft) 97,18 %
24.06.2017 03:00 19,9 C 27,8 C 68 % 1014,8 hPa 0,0 l/m 5,9 km/h (2 Bft) SW 0,00 h 0,050 mm 0,0 UV-I 0 W/m 13,8 C 19,8 C 8,8 km/h (2 Bft) 95,01 %
24.06.2017 04:00 19,3 C 27,8 C 70 % 1014,8 hPa 0,0 l/m 5,5 km/h (1 Bft) SW 0,00 h 0,026 mm 0,0 UV-I 5 W/m 13,6 C 19,2 C 8,3 km/h (2 Bft) 98,01 %
24.06.2017 05:00 19,2 C 27,8 C 70 % 1014,9 hPa 0,0 l/m 6,8 km/h (2 Bft) SW 0,03 h 0,025 mm 0,0 UV-I 22 W/m 13,6 C 18,9 C 9,9 km/h (2 Bft) 97,62 %
24.06.2017 06:00 19,7 C 27,8 C 69 % 1015,0 hPa 0,0 l/m 6,7 km/h (2 Bft) SW 0,30 h 0,051 mm 0,0 UV-I 96 W/m 13,9 C 19,4 C 10,0 km/h (2 Bft) 96,57 %
24.06.2017 07:00 21,4 C 27,8 C 66 % 1015,1 hPa 0,0 l/m 5,2 km/h (1 Bft) S-SW 0,90 h 0,102 mm 0,7 UV-I 280 W/m 14,8 C 21,3 C 8,9 km/h (2 Bft) 94,20 %
24.06.2017 08:00 22,6 C 27,8 C 59 % 1015,3 hPa 0,0 l/m 6,5 km/h (2 Bft) NW 1,00 h 0,203 mm 1,5 UV-I 451 W/m 14,1 C 22,3 C 13,8 km/h (3 Bft) 96,32 %
24.06.2017 09:00 24,0 C 27,7 C 53 % 1015,3 hPa 0,0 l/m 8,1 km/h (2 Bft) W 1,00 h 0,305 mm 2,7 UV-I 632 W/m 13,8 C 23,5 C 15,8 km/h (3 Bft) 96,12 %
24.06.2017 10:00 25,2 C 26,1 C 50 % 1015,1 hPa 0,0 l/m 9,5 km/h (2 Bft) W-SW 1,00 h 0,431 mm 4,0 UV-I 750 W/m 14,0 C 24,5 C 17,4 km/h (3 Bft) 97,32 %
24.06.2017 11:00 26,3 C 26,5 C 49 % 1014,6 hPa 0,0 l/m 11,9 km/h (2 Bft) W-SW 1,00 h 0,534 mm 5,2 UV-I 840 W/m 14,6 C 25,4 C 21,4 km/h (4 Bft) 94,40 %
24.06.2017 12:00 27,3 C 26,7 C 47 % 1014,3 hPa 0,0 l/m 8,6 km/h (2 Bft) W-SW 1,00 h 0,635 mm 6,0 UV-I 906 W/m 15,0 C 26,8 C 15,9 km/h (3 Bft) 95,85 %
24.06.2017 13:00 27,7 C 27,2 C 47 % 1013,8 hPa 0,0 l/m 8,0 km/h (2 Bft) W-SW 1,00 h 0,660 mm 5,9 UV-I 867 W/m 15,4 C 27,4 C 16,1 km/h (3 Bft) 97,31 %
24.06.2017 14:00 28,5 C 27,2 C 46 % 1013,1 hPa 0,0 l/m 7,6 km/h (2 Bft) W-SW 0,97 h 0,635 mm 5,0 UV-I 816 W/m 15,8 C 28,3 C 14,6 km/h (3 Bft) 97,23 %
24.06.2017 15:00 29,2 C 27,7 C 46 % 1012,4 hPa 0,0 l/m 7,5 km/h (2 Bft) W-SW 1,00 h 0,584 mm 4,1 UV-I 718 W/m 16,4 C 29,0 C 14,6 km/h (3 Bft) 94,59 %
24.06.2017 16:00 29,6 C 27,8 C 47 % 1011,7 hPa 0,0 l/m 5,8 km/h (2 Bft) W-SW 1,00 h 0,534 mm 2,8 UV-I 606 W/m 16,9 C 29,5 C 12,5 km/h (3 Bft) 97,79 %
24.06.2017 17:00 29,6 C 27,8 C 47 % 1011,3 hPa 0,0 l/m 5,1 km/h (1 Bft) W 1,00 h 0,457 mm 1,7 UV-I 455 W/m 17,1 C 29,6 C 11,7 km/h (2 Bft) 96,61 %
24.06.2017 18:00 28,9 C 27,8 C 49 % 1011,1 hPa 0,0 l/m 7,2 km/h (2 Bft) W-SW 0,90 h 0,356 mm 0,8 UV-I 272 W/m 16,9 C 28,7 C 16,0 km/h (3 Bft) 94,13 %
24.06.2017 19:00 28,1 C 27,8 C 50 % 1011,2 hPa 0,0 l/m 6,7 km/h (2 Bft) W-SW 0,93 h 0,254 mm 0,0 UV-I 147 W/m 16,5 C 28,0 C 13,3 km/h (3 Bft) 96,58 %
24.06.2017 20:00 26,8 C 27,8 C 54 % 1011,3 hPa 0,0 l/m 4,2 km/h (1 Bft) W 0,10 h 0,152 mm 0,0 UV-I 28 W/m 16,7 C 26,8 C 7,3 km/h (2 Bft) 97,56 %
24.06.2017 21:00 25,3 C 27,8 C 61 % 1011,9 hPa 0,0 l/m 2,7 km/h (1 Bft) SW 0,00 h 0,051 mm 0,0 UV-I 7 W/m 17,1 C 25,3 C 4,3 km/h (1 Bft) 97,09 %
24.06.2017 22:00 23,8 C 27,8 C 67 % 1012,3 hPa 0,0 l/m 3,6 km/h (1 Bft) SW 0,00 h 0,025 mm 0,0 UV-I 0 W/m 17,3 C 23,7 C 6,1 km/h (2 Bft) 95,88 %
24.06.2017 23:00 23,2 C 27,8 C 70 % 1012,7 hPa 0,0 l/m 8,5 km/h (2 Bft) SW 0,00 h 0,026 mm 0,0 UV-I 0 W/m 17,3 C 22,6 C 13,2 km/h (3 Bft) 97,88 %
25.06.2017 00:00 22,8 C 27,8 C 70 % 1012,5 hPa 0,0 l/m 5,4 km/h (1 Bft) SW 0,00 h 0,000 mm 0,0 UV-I 0 W/m 17,0 C 22,7 C 8,1 km/h (2 Bft) 97,86 %
25.06.2017 01:00 22,2 C 27,8 C 72 % 1011,9 hPa 0,0 l/m 9,0 km/h (2 Bft) W-SW 0,00 h 0,025 mm 0,0 UV-I 0 W/m 16,9 C 21,3 C 13,5 km/h (3 Bft) 95,99 %
25.06.2017 02:00 21,2 C 27,8 C 75 % 1011,8 hPa 0,0 l/m 6,6 km/h (2 Bft) SW 0,00 h 0,051 mm 0,0 UV-I 0 W/m 16,7 C 21,0 C 9,8 km/h (2 Bft) 96,21 %
25.06.2017 03:00 20,4 C 27,8 C 77 % 1011,6 hPa 0,0 l/m 6,0 km/h (2 Bft) S-SW 0,00 h 0,026 mm 0,0 UV-I 0 W/m 16,2 C 20,3 C 8,6 km/h (2 Bft) 97,44 %
25.06.2017 04:00 19,8 C 27,8 C 76 % 1011,7 hPa 0,0 l/m 5,8 km/h (2 Bft) SW 0,00 h 0,025 mm 0,0 UV-I 7 W/m 15,5 C 19,7 C 8,8 km/h (2 Bft) 97,42 %
25.06.2017 05:00 18,6 C 27,8 C 79 % 1011,5 hPa 0,0 l/m 3,4 km/h (1 Bft) SW 0,17 h 0,025 mm 0,0 UV-I 25 W/m 14,9 C 18,6 C 5,5 km/h (1 Bft) 95,98 %
25.06.2017 06:00 19,5 C 27,8 C 80 % 1011,5 hPa 0,0 l/m 3,4 km/h (1 Bft) S-SW 0,63 h 0,026 mm 0,0 UV-I 121 W/m 16,0 C 19,5 C 5,8 km/h (2 Bft) 96,30 %
25.06.2017 07:00 22,0 C 27,8 C 67 % 1012,0 hPa 0,0 l/m 4,2 km/h (1 Bft) SW 1,00 h 0,076 mm 0,7 UV-I 308 W/m 15,7 C 22,0 C 7,7 km/h (2 Bft) 98,12 %
25.06.2017 08:00 23,5 C 27,8 C 56 % 1012,2 hPa 0,0 l/m 2,8 km/h (1 Bft) W 1,00 h 0,203 mm 1,4 UV-I 388 W/m 14,2 C 23,5 C 5,4 km/h (1 Bft) 97,10 %
25.06.2017 09:00 23,8 C 26,9 C 53 % 1011,9 hPa 0,0 l/m 3,5 km/h (1 Bft) W-SW 0,23 h 0,254 mm 1,3 UV-I 273 W/m 13,6 C 23,8 C 6,7 km/h (2 Bft) 95,65 %
25.06.2017 10:00 23,6 C 26,1 C 56 % 1012,3 hPa 0,0 l/m 5,6 km/h (1 Bft) W-SW 0,00 h 0,203 mm 0,8 UV-I 141 W/m 14,2 C 23,5 C 9,2 km/h (2 Bft) 96,63 %
25.06.2017 11:00 21,8 C 26,1 C 74 % 1012,5 hPa 0,8 l/m 9,6 km/h (2 Bft) W-SW 0,00 h 0,127 mm 0,6 UV-I 96 W/m 16,8 C 20,8 C 15,2 km/h (3 Bft) 97,94 %
25.06.2017 12:00 20,0 C 26,1 C 89 % 1012,6 hPa 1,0 l/m 8,0 km/h (2 Bft) W-SW 0,00 h 0,102 mm 0,5 UV-I 77 W/m 18,2 C 19,4 C 12,7 km/h (3 Bft) 96,79 %
25.06.2017 13:00 19,1 C 26,1 C 92 % 1013,0 hPa 2,8 l/m 11,2 km/h (2 Bft) SW 0,00 h 0,051 mm 0,5 UV-I 70 W/m 17,7 C 17,2 C 17,4 km/h (3 Bft) 96,28 %
25.06.2017 14:00 18,4 C 26,1 C 92 % 1012,9 hPa 1,2 l/m 11,8 km/h (2 Bft) SW 0,00 h 0,051 mm 1,3 UV-I 206 W/m 17,1 C 16,3 C 17,8 km/h (3 Bft) 97,54 %
25.06.2017 15:00 19,4 C 26,1 C 89 % 1012,4 hPa 0,0 l/m 9,9 km/h (2 Bft) W-SW 0,00 h 0,127 mm 1,8 UV-I 289 W/m 17,6 C 18,1 C 15,9 km/h (3 Bft) 98,22 %
25.06.2017 16:00 20,1 C 26,1 C 86 % 1012,5 hPa 0,0 l/m 9,6 km/h (2 Bft) W-SW 0,00 h 0,177 mm 1,2 UV-I 216 W/m 17,7 C 18,9 C 15,2 km/h (3 Bft) 96,55 %
25.06.2017 17:00 20,2 C 25,7 C 82 % 1012,3 hPa 0,0 l/m 10,2 km/h (2 Bft) W-SW 0,00 h 0,153 mm 0,9 UV-I 198 W/m 17,1 C 18,9 C 16,0 km/h (3 Bft) 96,25 %
25.06.2017 18:00 20,9 C 25,6 C 78 % 1011,8 hPa 0,0 l/m 11,7 km/h (2 Bft) W-SW 0,40 h 0,152 mm 0,6 UV-I 217 W/m 17,0 C 19,2 C 18,9 km/h (3 Bft) 95,27 %
25.06.2017 19:00 21,2 C 25,6 C 75 % 1011,7 hPa 0,0 l/m 12,0 km/h (2 Bft) W-SW 0,93 h 0,153 mm 0,3 UV-I 166 W/m 16,7 C 19,5 C 18,8 km/h (3 Bft) 98,04 %
25.06.2017 20:00 20,8 C 25,6 C 76 % 1011,6 hPa 0,0 l/m 9,6 km/h (2 Bft) W-SW 0,93 h 0,152 mm 0,0 UV-I 62 W/m 16,4 C 19,7 C 15,2 km/h (3 Bft) 97,02 %
25.06.2017 21:00 19,9 C 25,6 C 76 % 1012,2 hPa 0,0 l/m 8,3 km/h (2 Bft) W-SW 0,00 h 0,076 mm 0,0 UV-I 9 W/m 15,4 C 19,1 C 13,2 km/h (3 Bft) 96,07 %
25.06.2017 22:00 19,1 C 25,6 C 79 % 1012,7 hPa 0,0 l/m 4,0 km/h (1 Bft) S-SW 0,00 h 0,026 mm 0,0 UV-I 0 W/m 15,5 C 19,0 C 6,8 km/h (2 Bft) 96,75 %
25.06.2017 23:00 18,4 C 25,6 C 80 % 1012,8 hPa 0,0 l/m 4,7 km/h (1 Bft) S-SW 0,00 h 0,025 mm 0,0 UV-I 0 W/m 15,0 C 18,4 C 7,9 km/h (2 Bft) 98,40 %
Min-Datum _ 19.06.17 19.06.17 21.06.17 23.06.17 - 19.06.17 - - - - - 19.06.17 19.06.17 19.06.17 19.06.17
_ Min-Zeit 05:40 03:44 14:40 02:54 - 00:16 - - - - - 05:36 05:40 00:36 11:20
Minimum _ 10,3 C 22,2 C 29 % 1008,1 hPa - 0,0 km/h (0 Bft) - - - - - 8,1 C 10,3 C 0,0 km/h (0 Bft) 51,75 %
Max-Datum _ 22.06.17 24.06.17 25.06.17 19.06.17 25.06.17 23.06.17 - 19.06.17 23.06.17 19.06.17 23.06.17 23.06.17 22.06.17 23.06.17 19.06.17
_ Max-Zeit 16:54 18:30 14:32 00:04 13:02 13:00 - 11:14 13:02 12:46 13:06 08:12 16:52 13:00 00:08
Maximum _ 33,4 C 28,3 C 93 % 1022,7 hPa 2,8 l/m 32,8 km/h
W-SW (5 Bft)
- 0,07 h 0,711 mm 7,0 UV-I 992 W/m 19,5 C 33,3 C 54,7 km/h
W (7 Bft)
100,00 %
Durchschnitt _ 23,7 C 26,0 C 61 % 1013,7 hPa #7,4 l/m 5,9 km/h (2 Bft) SW #83:03 h #38,634 mm 2,9 UV-I 392 W/m 15,0 C 23,4 C 10,4 km/h (2 Bft) 96,65 %